sensor_id;sensor_type;location;lat;lon;timestamp;P1;durP1;ratioP1;P2;durP2;ratioP2
11396;SDS011;5754;43.726;7.416;2024-01-15T00:01:23;92.17;;;88.03;;
11396;SDS011;5754;43.726;7.416;2024-01-15T00:04:01;90.30;;;86.40;;
11396;SDS011;5754;43.726;7.416;2024-01-15T00:06:36;91.67;;;87.60;;
11396;SDS011;5754;43.726;7.416;2024-01-15T00:09:15;91.70;;;87.67;;
11396;SDS011;5754;43.726;7.416;2024-01-15T00:11:50;91.73;;;87.57;;
11396;SDS011;5754;43.726;7.416;2024-01-15T00:14:24;90.60;;;86.60;;
11396;SDS011;5754;43.726;7.416;2024-01-15T00:16:59;91.10;;;87.10;;
11396;SDS011;5754;43.726;7.416;2024-01-15T00:19:34;90.07;;;86.07;;
11396;SDS011;5754;43.726;7.416;2024-01-15T00:22:10;92.47;;;88.33;;
11396;SDS011;5754;43.726;7.416;2024-01-15T00:24:47;89.07;;;85.07;;
11396;SDS011;5754;43.726;7.416;2024-01-15T00:27:21;88.97;;;84.97;;
11396;SDS011;5754;43.726;7.416;2024-01-15T00:29:57;89.43;;;85.23;;
11396;SDS011;5754;43.726;7.416;2024-01-15T00:32:32;90.67;;;86.47;;
11396;SDS011;5754;43.726;7.416;2024-01-15T00:35:07;90.93;;;86.97;;
11396;SDS011;5754;43.726;7.416;2024-01-15T00:37:42;90.07;;;86.07;;
11396;SDS011;5754;43.726;7.416;2024-01-15T00:40:17;87.43;;;83.53;;
11396;SDS011;5754;43.726;7.416;2024-01-15T00:42:51;89.60;;;85.60;;
11396;SDS011;5754;43.726;7.416;2024-01-15T00:45:26;89.57;;;85.57;;
11396;SDS011;5754;43.726;7.416;2024-01-15T00:48:04;87.83;;;83.93;;
11396;SDS011;5754;43.726;7.416;2024-01-15T00:50:39;89.50;;;85.40;;
11396;SDS011;5754;43.726;7.416;2024-01-15T00:53:14;87.60;;;83.70;;
11396;SDS011;5754;43.726;7.416;2024-01-15T00:55:50;87.40;;;83.50;;
11396;SDS011;5754;43.726;7.416;2024-01-15T00:58:27;88.20;;;84.20;;
11396;SDS011;5754;43.726;7.416;2024-01-15T01:01:02;88.30;;;84.30;;
11396;SDS011;5754;43.726;7.416;2024-01-15T01:03:38;89.17;;;85.17;;
11396;SDS011;5754;43.726;7.416;2024-01-15T01:06:13;86.53;;;82.63;;
11396;SDS011;5754;43.726;7.416;2024-01-15T01:08:47;84.83;;;80.97;;
11396;SDS011;5754;43.726;7.416;2024-01-15T01:11:24;87.70;;;83.67;;
11396;SDS011;5754;43.726;7.416;2024-01-15T01:13:59;86.30;;;82.27;;
11396;SDS011;5754;43.726;7.416;2024-01-15T01:16:35;84.53;;;80.73;;
11396;SDS011;5754;43.726;7.416;2024-01-15T01:19:13;85.63;;;81.77;;
11396;SDS011;5754;43.726;7.416;2024-01-15T01:21:48;83.67;;;79.80;;
11396;SDS011;5754;43.726;7.416;2024-01-15T01:24:25;83.77;;;79.87;;
11396;SDS011;5754;43.726;7.416;2024-01-15T01:26:59;83.37;;;79.50;;
11396;SDS011;5754;43.726;7.416;2024-01-15T01:29:34;82.03;;;78.17;;
11396;SDS011;5754;43.726;7.416;2024-01-15T01:32:10;83.97;;;80.17;;
11396;SDS011;5754;43.726;7.416;2024-01-15T01:34:44;84.40;;;80.50;;
11396;SDS011;5754;43.726;7.416;2024-01-15T01:37:21;83.40;;;79.60;;
11396;SDS011;5754;43.726;7.416;2024-01-15T01:39:55;85.67;;;81.67;;
11396;SDS011;5754;43.726;7.416;2024-01-15T01:42:30;84.23;;;80.00;;
11396;SDS011;5754;43.726;7.416;2024-01-15T01:45:05;85.37;;;81.37;;
11396;SDS011;5754;43.726;7.416;2024-01-15T01:47:40;85.17;;;81.37;;
11396;SDS011;5754;43.726;7.416;2024-01-15T01:50:15;84.00;;;80.07;;
11396;SDS011;5754;43.726;7.416;2024-01-15T01:52:51;83.40;;;79.60;;
11396;SDS011;5754;43.726;7.416;2024-01-15T01:55:27;82.93;;;79.13;;
11396;SDS011;5754;43.726;7.416;2024-01-15T01:58:02;84.83;;;81.00;;
11396;SDS011;5754;43.726;7.416;2024-01-15T02:00:38;82.57;;;78.67;;
11396;SDS011;5754;43.726;7.416;2024-01-15T02:03:14;81.57;;;77.77;;
11396;SDS011;5754;43.726;7.416;2024-01-15T02:05:50;82.10;;;78.20;;
11396;SDS011;5754;43.726;7.416;2024-01-15T02:08:25;78.10;;;74.40;;
11396;SDS011;5754;43.726;7.416;2024-01-15T02:11:01;77.40;;;73.80;;
11396;SDS011;5754;43.726;7.416;2024-01-15T02:13:38;79.33;;;75.50;;
11396;SDS011;5754;43.726;7.416;2024-01-15T02:16:13;78.13;;;74.47;;
11396;SDS011;5754;43.726;7.416;2024-01-15T02:18:48;81.60;;;77.73;;
11396;SDS011;5754;43.726;7.416;2024-01-15T02:21:22;77.07;;;73.57;;
11396;SDS011;5754;43.726;7.416;2024-01-15T02:24:01;77.87;;;74.13;;
11396;SDS011;5754;43.726;7.416;2024-01-15T02:26:35;76.37;;;72.87;;
11396;SDS011;5754;43.726;7.416;2024-01-15T02:29:11;76.87;;;73.30;;
11396;SDS011;5754;43.726;7.416;2024-01-15T02:31:47;76.70;;;73.10;;
11396;SDS011;5754;43.726;7.416;2024-01-15T02:34:22;77.43;;;73.63;;
11396;SDS011;5754;43.726;7.416;2024-01-15T02:36:57;78.13;;;74.37;;
11396;SDS011;5754;43.726;7.416;2024-01-15T02:39:32;75.50;;;71.90;;
11396;SDS011;5754;43.726;7.416;2024-01-15T02:42:06;74.20;;;70.80;;
11396;SDS011;5754;43.726;7.416;2024-01-15T02:44:41;75.97;;;72.27;;
11396;SDS011;5754;43.726;7.416;2024-01-15T02:47:16;76.40;;;72.50;;
11396;SDS011;5754;43.726;7.416;2024-01-15T02:49:51;73.07;;;69.57;;
11396;SDS011;5754;43.726;7.416;2024-01-15T02:52:26;75.77;;;72.17;;
11396;SDS011;5754;43.726;7.416;2024-01-15T02:55:01;72.60;;;69.10;;
11396;SDS011;5754;43.726;7.416;2024-01-15T02:57:36;72.87;;;69.43;;
11396;SDS011;5754;43.726;7.416;2024-01-15T03:00:12;73.73;;;70.13;;
11396;SDS011;5754;43.726;7.416;2024-01-15T03:02:47;69.77;;;66.43;;
11396;SDS011;5754;43.726;7.416;2024-01-15T03:05:22;70.37;;;66.87;;
11396;SDS011;5754;43.726;7.416;2024-01-15T03:07:57;68.77;;;65.47;;
11396;SDS011;5754;43.726;7.416;2024-01-15T03:10:31;69.77;;;66.47;;
11396;SDS011;5754;43.726;7.416;2024-01-15T03:13:06;69.50;;;66.20;;
11396;SDS011;5754;43.726;7.416;2024-01-15T03:15:42;69.67;;;66.17;;
11396;SDS011;5754;43.726;7.416;2024-01-15T03:18:17;70.40;;;66.80;;
11396;SDS011;5754;43.726;7.416;2024-01-15T03:20:52;71.93;;;68.53;;
11396;SDS011;5754;43.726;7.416;2024-01-15T03:23:27;72.00;;;68.43;;
11396;SDS011;5754;43.726;7.416;2024-01-15T03:26:01;70.07;;;66.63;;
11396;SDS011;5754;43.726;7.416;2024-01-15T03:28:36;71.20;;;67.80;;
11396;SDS011;5754;43.726;7.416;2024-01-15T03:31:10;69.70;;;66.40;;
11396;SDS011;5754;43.726;7.416;2024-01-15T03:33:45;70.80;;;67.50;;
11396;SDS011;5754;43.726;7.416;2024-01-15T03:36:19;73.63;;;70.13;;
11396;SDS011;5754;43.726;7.416;2024-01-15T03:38:54;71.63;;;68.13;;
11396;SDS011;5754;43.726;7.416;2024-01-15T03:41:30;72.40;;;68.80;;
11396;SDS011;5754;43.726;7.416;2024-01-15T03:44:06;72.77;;;69.37;;
11396;SDS011;5754;43.726;7.416;2024-01-15T03:46:41;71.10;;;67.70;;
11396;SDS011;5754;43.726;7.416;2024-01-15T03:49:17;71.60;;;68.00;;
11396;SDS011;5754;43.726;7.416;2024-01-15T03:51:52;70.90;;;67.43;;
11396;SDS011;5754;43.726;7.416;2024-01-15T03:54:28;70.90;;;67.50;;
11396;SDS011;5754;43.726;7.416;2024-01-15T03:57:03;72.73;;;69.13;;
11396;SDS011;5754;43.726;7.416;2024-01-15T03:59:40;72.40;;;69.00;;
11396;SDS011;5754;43.726;7.416;2024-01-15T04:02:15;71.33;;;67.93;;
11396;SDS011;5754;43.726;7.416;2024-01-15T04:04:50;72.43;;;69.03;;
11396;SDS011;5754;43.726;7.416;2024-01-15T04:10:10;72.80;;;69.27;;
11396;SDS011;5754;43.726;7.416;2024-01-15T04:12:47;73.07;;;69.43;;
11396;SDS011;5754;43.726;7.416;2024-01-15T04:15:21;71.10;;;67.70;;
11396;SDS011;5754;43.726;7.416;2024-01-15T04:17:57;70.60;;;67.20;;
11396;SDS011;5754;43.726;7.416;2024-01-15T04:20:33;70.47;;;67.17;;
11396;SDS011;5754;43.726;7.416;2024-01-15T04:23:09;69.70;;;66.30;;
11396;SDS011;5754;43.726;7.416;2024-01-15T04:25:45;68.47;;;65.13;;
11396;SDS011;5754;43.726;7.416;2024-01-15T04:28:21;70.00;;;66.70;;
11396;SDS011;5754;43.726;7.416;2024-01-15T04:30:56;70.20;;;66.80;;
11396;SDS011;5754;43.726;7.416;2024-01-15T04:33:31;70.63;;;67.20;;
11396;SDS011;5754;43.726;7.416;2024-01-15T04:36:06;70.40;;;67.00;;
11396;SDS011;5754;43.726;7.416;2024-01-15T04:38:41;70.40;;;67.03;;
11396;SDS011;5754;43.726;7.416;2024-01-15T04:41:17;69.57;;;66.17;;
11396;SDS011;5754;43.726;7.416;2024-01-15T04:43:52;70.53;;;67.03;;
11396;SDS011;5754;43.726;7.416;2024-01-15T04:46:26;70.80;;;67.33;;
11396;SDS011;5754;43.726;7.416;2024-01-15T04:49:01;70.63;;;67.13;;
11396;SDS011;5754;43.726;7.416;2024-01-15T04:51:36;72.60;;;68.90;;
11396;SDS011;5754;43.726;7.416;2024-01-15T04:54:11;74.17;;;70.57;;
11396;SDS011;5754;43.726;7.416;2024-01-15T04:56:46;73.03;;;69.53;;
11396;SDS011;5754;43.726;7.416;2024-01-15T04:59:22;72.47;;;68.87;;
11396;SDS011;5754;43.726;7.416;2024-01-15T05:01:57;71.27;;;67.87;;
11396;SDS011;5754;43.726;7.416;2024-01-15T05:04:33;70.90;;;67.57;;
11396;SDS011;5754;43.726;7.416;2024-01-15T05:07:08;70.10;;;66.70;;
11396;SDS011;5754;43.726;7.416;2024-01-15T05:09:43;69.87;;;66.43;;
11396;SDS011;5754;43.726;7.416;2024-01-15T05:12:18;70.53;;;67.23;;
11396;SDS011;5754;43.726;7.416;2024-01-15T05:14:52;71.20;;;67.57;;
11396;SDS011;5754;43.726;7.416;2024-01-15T05:17:28;69.80;;;66.40;;
11396;SDS011;5754;43.726;7.416;2024-01-15T05:20:04;69.13;;;65.73;;
11396;SDS011;5754;43.726;7.416;2024-01-15T05:22:39;67.33;;;63.97;;
11396;SDS011;5754;43.726;7.416;2024-01-15T05:25:14;68.40;;;65.10;;
11396;SDS011;5754;43.726;7.416;2024-01-15T05:27:49;71.60;;;68.10;;
11396;SDS011;5754;43.726;7.416;2024-01-15T05:30:23;70.90;;;67.53;;
11396;SDS011;5754;43.726;7.416;2024-01-15T05:32:59;71.17;;;67.77;;
11396;SDS011;5754;43.726;7.416;2024-01-15T05:35:34;73.23;;;69.53;;
11396;SDS011;5754;43.726;7.416;2024-01-15T05:38:10;73.43;;;69.87;;
11396;SDS011;5754;43.726;7.416;2024-01-15T05:40:45;72.67;;;69.30;;
11396;SDS011;5754;43.726;7.416;2024-01-15T05:43:20;73.90;;;70.27;;
11396;SDS011;5754;43.726;7.416;2024-01-15T05:45:54;73.67;;;70.23;;
11396;SDS011;5754;43.726;7.416;2024-01-15T05:48:30;74.27;;;70.47;;
11396;SDS011;5754;43.726;7.416;2024-01-15T05:51:05;75.27;;;71.67;;
11396;SDS011;5754;43.726;7.416;2024-01-15T05:53:40;75.13;;;71.57;;
11396;SDS011;5754;43.726;7.416;2024-01-15T05:56:17;74.93;;;71.30;;
11396;SDS011;5754;43.726;7.416;2024-01-15T05:58:52;75.60;;;72.10;;
11396;SDS011;5754;43.726;7.416;2024-01-15T06:01:28;77.83;;;74.13;;
11396;SDS011;5754;43.726;7.416;2024-01-15T06:04:06;76.33;;;72.73;;
11396;SDS011;5754;43.726;7.416;2024-01-15T06:06:41;75.70;;;71.97;;
11396;SDS011;5754;43.726;7.416;2024-01-15T06:09:34;78.47;;;74.53;;
11396;SDS011;5754;43.726;7.416;2024-01-15T06:12:12;76.67;;;72.87;;
11396;SDS011;5754;43.726;7.416;2024-01-15T06:14:46;75.40;;;71.90;;
11396;SDS011;5754;43.726;7.416;2024-01-15T06:17:22;74.90;;;71.27;;
11396;SDS011;5754;43.726;7.416;2024-01-15T06:19:56;74.73;;;71.07;;
11396;SDS011;5754;43.726;7.416;2024-01-15T06:22:32;71.63;;;67.83;;
11396;SDS011;5754;43.726;7.416;2024-01-15T06:25:08;74.27;;;70.63;;
11396;SDS011;5754;43.726;7.416;2024-01-15T06:27:43;76.00;;;72.10;;
11396;SDS011;5754;43.726;7.416;2024-01-15T06:30:18;75.30;;;71.50;;
11396;SDS011;5754;43.726;7.416;2024-01-15T06:32:52;74.33;;;70.63;;
11396;SDS011;5754;43.726;7.416;2024-01-15T06:35:28;74.00;;;70.13;;
11396;SDS011;5754;43.726;7.416;2024-01-15T06:38:03;71.27;;;67.77;;
11396;SDS011;5754;43.726;7.416;2024-01-15T06:40:38;73.60;;;70.00;;
11396;SDS011;5754;43.726;7.416;2024-01-15T06:43:18;72.43;;;68.93;;
11396;SDS011;5754;43.726;7.416;2024-01-15T06:45:53;74.30;;;70.60;;
11396;SDS011;5754;43.726;7.416;2024-01-15T06:48:30;75.27;;;71.53;;
11396;SDS011;5754;43.726;7.416;2024-01-15T06:51:04;72.43;;;68.80;;
11396;SDS011;5754;43.726;7.416;2024-01-15T06:53:40;74.37;;;70.70;;
11396;SDS011;5754;43.726;7.416;2024-01-15T06:56:14;73.37;;;69.43;;
11396;SDS011;5754;43.726;7.416;2024-01-15T06:58:55;74.17;;;70.30;;
11396;SDS011;5754;43.726;7.416;2024-01-15T07:01:31;73.53;;;69.67;;
11396;SDS011;5754;43.726;7.416;2024-01-15T07:04:08;74.53;;;70.67;;
11396;SDS011;5754;43.726;7.416;2024-01-15T07:06:44;72.87;;;68.97;;
11396;SDS011;5754;43.726;7.416;2024-01-15T07:09:19;72.60;;;68.90;;
11396;SDS011;5754;43.726;7.416;2024-01-15T07:11:55;74.30;;;70.40;;
11396;SDS011;5754;43.726;7.416;2024-01-15T07:14:31;75.23;;;71.60;;
11396;SDS011;5754;43.726;7.416;2024-01-15T07:17:09;74.77;;;71.20;;
11396;SDS011;5754;43.726;7.416;2024-01-15T07:19:43;75.83;;;72.27;;
11396;SDS011;5754;43.726;7.416;2024-01-15T07:22:18;77.17;;;73.67;;
11396;SDS011;5754;43.726;7.416;2024-01-15T07:24:54;78.50;;;74.87;;
11396;SDS011;5754;43.726;7.416;2024-01-15T07:27:30;79.20;;;75.37;;
11396;SDS011;5754;43.726;7.416;2024-01-15T07:30:06;83.23;;;79.40;;
11396;SDS011;5754;43.726;7.416;2024-01-15T07:32:44;82.97;;;79.17;;
11396;SDS011;5754;43.726;7.416;2024-01-15T07:35:21;85.10;;;81.30;;
11396;SDS011;5754;43.726;7.416;2024-01-15T07:37:55;84.77;;;80.83;;
11396;SDS011;5754;43.726;7.416;2024-01-15T07:40:31;86.93;;;82.70;;
11396;SDS011;5754;43.726;7.416;2024-01-15T07:43:07;87.93;;;83.80;;
11396;SDS011;5754;43.726;7.416;2024-01-15T07:45:41;88.50;;;84.27;;
11396;SDS011;5754;43.726;7.416;2024-01-15T07:48:27;91.90;;;87.90;;
11396;SDS011;5754;43.726;7.416;2024-01-15T07:51:06;89.00;;;84.87;;
11396;SDS011;5754;43.726;7.416;2024-01-15T07:53:43;87.97;;;84.07;;
11396;SDS011;5754;43.726;7.416;2024-01-15T07:56:18;90.10;;;86.17;;
11396;SDS011;5754;43.726;7.416;2024-01-15T07:58:53;90.90;;;86.90;;
11396;SDS011;5754;43.726;7.416;2024-01-15T08:01:28;90.73;;;86.63;;
11396;SDS011;5754;43.726;7.416;2024-01-15T08:04:03;93.57;;;89.37;;
11396;SDS011;5754;43.726;7.416;2024-01-15T08:06:38;94.93;;;90.60;;
11396;SDS011;5754;43.726;7.416;2024-01-15T08:11:58;97.07;;;92.78;;
11396;SDS011;5754;43.726;7.416;2024-01-15T08:14:34;98.18;;;93.65;;
11396;SDS011;5754;43.726;7.416;2024-01-15T08:17:11;97.05;;;92.72;;
11396;SDS011;5754;43.726;7.416;2024-01-15T08:19:48;100.50;;;96.00;;
11396;SDS011;5754;43.726;7.416;2024-01-15T08:22:24;99.62;;;95.12;;
11396;SDS011;5754;43.726;7.416;2024-01-15T08:24:59;101.60;;;97.10;;
11396;SDS011;5754;43.726;7.416;2024-01-15T08:27:33;101.80;;;97.10;;
11396;SDS011;5754;43.726;7.416;2024-01-15T08:30:10;103.30;;;98.70;;
11396;SDS011;5754;43.726;7.416;2024-01-15T08:32:45;106.25;;;101.15;;
11396;SDS011;5754;43.726;7.416;2024-01-15T08:35:23;106.00;;;100.90;;
11396;SDS011;5754;43.726;7.416;2024-01-15T08:37:59;106.85;;;101.78;;
11396;SDS011;5754;43.726;7.416;2024-01-15T08:40:43;107.10;;;102.40;;
11396;SDS011;5754;43.726;7.416;2024-01-15T08:43:18;110.37;;;105.60;;
11396;SDS011;5754;43.726;7.416;2024-01-15T08:45:54;109.35;;;104.63;;
11396;SDS011;5754;43.726;7.416;2024-01-15T08:48:29;107.45;;;102.68;;
11396;SDS011;5754;43.726;7.416;2024-01-15T08:51:04;110.72;;;105.70;;
11396;SDS011;5754;43.726;7.416;2024-01-15T08:53:40;110.40;;;105.30;;
11396;SDS011;5754;43.726;7.416;2024-01-15T08:56:18;109.87;;;104.97;;
11396;SDS011;5754;43.726;7.416;2024-01-15T08:58:55;111.82;;;106.85;;
11396;SDS011;5754;43.726;7.416;2024-01-15T09:01:30;111.15;;;106.25;;
11396;SDS011;5754;43.726;7.416;2024-01-15T09:04:07;111.75;;;106.95;;
11396;SDS011;5754;43.726;7.416;2024-01-15T09:06:42;112.32;;;107.43;;
11396;SDS011;5754;43.726;7.416;2024-01-15T09:09:20;114.30;;;109.30;;
11396;SDS011;5754;43.726;7.416;2024-01-15T09:11:57;116.20;;;111.20;;
11396;SDS011;5754;43.726;7.416;2024-01-15T09:14:33;117.62;;;112.53;;
11396;SDS011;5754;43.726;7.416;2024-01-15T09:17:09;117.75;;;112.75;;
11396;SDS011;5754;43.726;7.416;2024-01-15T09:19:48;121.37;;;115.93;;
11396;SDS011;5754;43.726;7.416;2024-01-15T09:22:23;121.85;;;116.55;;
11396;SDS011;5754;43.726;7.416;2024-01-15T09:25:02;120.22;;;115.10;;
11396;SDS011;5754;43.726;7.416;2024-01-15T09:27:38;119.85;;;114.75;;
11396;SDS011;5754;43.726;7.416;2024-01-15T09:30:13;120.70;;;115.60;;
11396;SDS011;5754;43.726;7.416;2024-01-15T09:32:51;117.97;;;112.88;;
11396;SDS011;5754;43.726;7.416;2024-01-15T09:35:32;119.00;;;113.82;;
11396;SDS011;5754;43.726;7.416;2024-01-15T09:38:07;118.13;;;113.07;;
11396;SDS011;5754;43.726;7.416;2024-01-15T09:40:42;121.03;;;115.82;;
11396;SDS011;5754;43.726;7.416;2024-01-15T09:43:19;118.10;;;112.97;;
11396;SDS011;5754;43.726;7.416;2024-01-15T09:45:54;116.70;;;111.80;;
11396;SDS011;5754;43.726;7.416;2024-01-15T09:48:29;115.53;;;110.65;;
11396;SDS011;5754;43.726;7.416;2024-01-15T09:51:05;117.90;;;112.80;;
11396;SDS011;5754;43.726;7.416;2024-01-15T09:53:42;119.53;;;114.45;;
11396;SDS011;5754;43.726;7.416;2024-01-15T09:56:17;116.03;;;111.12;;
11396;SDS011;5754;43.726;7.416;2024-01-15T09:58:52;115.95;;;110.95;;
11396;SDS011;5754;43.726;7.416;2024-01-15T10:01:27;114.25;;;109.28;;
11396;SDS011;5754;43.726;7.416;2024-01-15T10:04:03;116.53;;;111.53;;
11396;SDS011;5754;43.726;7.416;2024-01-15T10:06:44;116.97;;;111.80;;
11396;SDS011;5754;43.726;7.416;2024-01-15T10:09:21;116.00;;;110.82;;
11396;SDS011;5754;43.726;7.416;2024-01-15T10:11:57;115.07;;;110.28;;
11396;SDS011;5754;43.726;7.416;2024-01-15T10:14:31;117.95;;;112.88;;
11396;SDS011;5754;43.726;7.416;2024-01-15T10:17:15;115.57;;;110.68;;
11396;SDS011;5754;43.726;7.416;2024-01-15T10:19:53;118.25;;;113.22;;
11396;SDS011;5754;43.726;7.416;2024-01-15T10:22:27;115.47;;;110.63;;
11396;SDS011;5754;43.726;7.416;2024-01-15T10:25:04;116.68;;;111.78;;
11396;SDS011;5754;43.726;7.416;2024-01-15T10:27:40;115.85;;;110.97;;
11396;SDS011;5754;43.726;7.416;2024-01-15T10:30:17;115.22;;;110.43;;
11396;SDS011;5754;43.726;7.416;2024-01-15T10:32:59;116.22;;;111.25;;
11396;SDS011;5754;43.726;7.416;2024-01-15T10:35:36;115.88;;;110.93;;
11396;SDS011;5754;43.726;7.416;2024-01-15T10:38:11;115.30;;;110.50;;
11396;SDS011;5754;43.726;7.416;2024-01-15T10:40:46;114.12;;;109.32;;
11396;SDS011;5754;43.726;7.416;2024-01-15T10:43:22;112.78;;;108.05;;
11396;SDS011;5754;43.726;7.416;2024-01-15T10:45:59;114.88;;;109.97;;
11396;SDS011;5754;43.726;7.416;2024-01-15T10:48:34;110.95;;;106.25;;
11396;SDS011;5754;43.726;7.416;2024-01-15T10:51:10;113.50;;;108.60;;
11396;SDS011;5754;43.726;7.416;2024-01-15T10:53:45;113.93;;;109.03;;
11396;SDS011;5754;43.726;7.416;2024-01-15T10:56:21;114.25;;;109.45;;
11396;SDS011;5754;43.726;7.416;2024-01-15T10:58:56;112.82;;;107.80;;
11396;SDS011;5754;43.726;7.416;2024-01-15T11:01:32;114.00;;;109.05;;
11396;SDS011;5754;43.726;7.416;2024-01-15T11:04:09;114.75;;;109.80;;
11396;SDS011;5754;43.726;7.416;2024-01-15T11:06:45;114.93;;;109.95;;
11396;SDS011;5754;43.726;7.416;2024-01-15T11:09:21;115.05;;;110.15;;
11396;SDS011;5754;43.726;7.416;2024-01-15T11:12:12;115.10;;;110.22;;
11396;SDS011;5754;43.726;7.416;2024-01-15T11:14:47;112.32;;;107.60;;
11396;SDS011;5754;43.726;7.416;2024-01-15T11:17:23;112.05;;;107.18;;
11396;SDS011;5754;43.726;7.416;2024-01-15T11:20:00;113.37;;;108.47;;
11396;SDS011;5754;43.726;7.416;2024-01-15T11:22:47;113.90;;;109.10;;
11396;SDS011;5754;43.726;7.416;2024-01-15T11:25:22;113.32;;;108.43;;
11396;SDS011;5754;43.726;7.416;2024-01-15T11:27:58;112.20;;;107.40;;
11396;SDS011;5754;43.726;7.416;2024-01-15T11:30:33;111.68;;;106.97;;
11396;SDS011;5754;43.726;7.416;2024-01-15T11:33:31;112.00;;;107.30;;
11396;SDS011;5754;43.726;7.416;2024-01-15T11:36:08;109.30;;;104.70;;
11396;SDS011;5754;43.726;7.416;2024-01-15T11:38:43;112.00;;;107.20;;
11396;SDS011;5754;43.726;7.416;2024-01-15T11:41:19;113.78;;;108.82;;
11396;SDS011;5754;43.726;7.416;2024-01-15T11:43:54;113.18;;;108.37;;
11396;SDS011;5754;43.726;7.416;2024-01-15T11:46:29;112.30;;;107.43;;
11396;SDS011;5754;43.726;7.416;2024-01-15T11:49:06;111.28;;;106.53;;
11396;SDS011;5754;43.726;7.416;2024-01-15T11:51:44;111.50;;;106.57;;
11396;SDS011;5754;43.726;7.416;2024-01-15T11:54:19;109.70;;;104.97;;
11396;SDS011;5754;43.726;7.416;2024-01-15T11:56:55;107.10;;;102.40;;
11396;SDS011;5754;43.726;7.416;2024-01-15T11:59:31;103.38;;;98.78;;
11396;SDS011;5754;43.726;7.416;2024-01-15T12:02:06;106.72;;;102.03;;
11396;SDS011;5754;43.726;7.416;2024-01-15T12:04:43;103.57;;;99.18;;
11396;SDS011;5754;43.726;7.416;2024-01-15T12:07:18;105.43;;;100.93;;
11396;SDS011;5754;43.726;7.416;2024-01-15T12:09:53;105.60;;;100.83;;
11396;SDS011;5754;43.726;7.416;2024-01-15T12:12:34;105.55;;;100.95;;
11396;SDS011;5754;43.726;7.416;2024-01-15T12:15:16;103.18;;;98.65;;
11396;SDS011;5754;43.726;7.416;2024-01-15T12:17:52;104.85;;;100.25;;
11396;SDS011;5754;43.726;7.416;2024-01-15T12:20:27;104.63;;;100.12;;
11396;SDS011;5754;43.726;7.416;2024-01-15T12:23:02;106.10;;;101.50;;
11396;SDS011;5754;43.726;7.416;2024-01-15T12:25:40;104.40;;;99.80;;
11396;SDS011;5754;43.726;7.416;2024-01-15T12:28:15;103.77;;;98.97;;
11396;SDS011;5754;43.726;7.416;2024-01-15T12:30:52;102.97;;;98.43;;
11396;SDS011;5754;43.726;7.416;2024-01-15T12:33:27;103.63;;;99.00;;
11396;SDS011;5754;43.726;7.416;2024-01-15T12:36:01;103.57;;;99.03;;
11396;SDS011;5754;43.726;7.416;2024-01-15T12:38:36;104.00;;;99.30;;
11396;SDS011;5754;43.726;7.416;2024-01-15T12:41:12;103.40;;;98.80;;
11396;SDS011;5754;43.726;7.416;2024-01-15T12:43:47;101.80;;;97.10;;
11396;SDS011;5754;43.726;7.416;2024-01-15T12:46:33;102.53;;;98.13;;
11396;SDS011;5754;43.726;7.416;2024-01-15T12:49:10;103.30;;;98.60;;
11396;SDS011;5754;43.726;7.416;2024-01-15T12:51:54;101.50;;;97.00;;
11396;SDS011;5754;43.726;7.416;2024-01-15T12:54:31;100.80;;;96.30;;
11396;SDS011;5754;43.726;7.416;2024-01-15T12:57:06;102.97;;;98.50;;
11396;SDS011;5754;43.726;7.416;2024-01-15T12:59:45;100.57;;;96.07;;
11396;SDS011;5754;43.726;7.416;2024-01-15T13:02:24;100.60;;;96.10;;
11396;SDS011;5754;43.726;7.416;2024-01-15T13:04:59;99.67;;;95.17;;
11396;SDS011;5754;43.726;7.416;2024-01-15T13:07:35;96.83;;;92.43;;
11396;SDS011;5754;43.726;7.416;2024-01-15T13:10:13;100.27;;;95.87;;
11396;SDS011;5754;43.726;7.416;2024-01-15T13:12:49;99.27;;;94.70;;
11396;SDS011;5754;43.726;7.416;2024-01-15T13:15:24;98.93;;;94.63;;
11396;SDS011;5754;43.726;7.416;2024-01-15T13:18:00;98.47;;;94.17;;
11396;SDS011;5754;43.726;7.416;2024-01-15T13:20:35;98.60;;;94.20;;
11396;SDS011;5754;43.726;7.416;2024-01-15T13:23:10;101.50;;;97.00;;
11396;SDS011;5754;43.726;7.416;2024-01-15T13:25:47;97.10;;;92.67;;
11396;SDS011;5754;43.726;7.416;2024-01-15T13:28:23;100.20;;;95.70;;
11396;SDS011;5754;43.726;7.416;2024-01-15T13:31:00;97.50;;;93.10;;
11396;SDS011;5754;43.726;7.416;2024-01-15T13:33:36;97.73;;;93.33;;
11396;SDS011;5754;43.726;7.416;2024-01-15T13:36:12;98.97;;;94.67;;
11396;SDS011;5754;43.726;7.416;2024-01-15T13:38:48;97.60;;;93.30;;
11396;SDS011;5754;43.726;7.416;2024-01-15T13:41:22;95.10;;;90.90;;
11396;SDS011;5754;43.726;7.416;2024-01-15T13:44:01;100.57;;;95.97;;
11396;SDS011;5754;43.726;7.416;2024-01-15T13:46:39;99.10;;;94.53;;
11396;SDS011;5754;43.726;7.416;2024-01-15T13:49:14;97.70;;;93.40;;
11396;SDS011;5754;43.726;7.416;2024-01-15T13:51:49;94.83;;;90.60;;
11396;SDS011;5754;43.726;7.416;2024-01-15T13:54:24;97.00;;;92.73;;
11396;SDS011;5754;43.726;7.416;2024-01-15T13:56:59;93.30;;;89.00;;
11396;SDS011;5754;43.726;7.416;2024-01-15T13:59:35;94.30;;;90.00;;
11396;SDS011;5754;43.726;7.416;2024-01-15T14:02:10;94.53;;;90.33;;
11396;SDS011;5754;43.726;7.416;2024-01-15T14:04:45;94.93;;;90.73;;
11396;SDS011;5754;43.726;7.416;2024-01-15T14:07:20;95.80;;;91.47;;
11396;SDS011;5754;43.726;7.416;2024-01-15T14:09:56;95.50;;;91.30;;
11396;SDS011;5754;43.726;7.416;2024-01-15T14:12:32;94.10;;;89.87;;
11396;SDS011;5754;43.726;7.416;2024-01-15T14:15:06;94.00;;;89.70;;
11396;SDS011;5754;43.726;7.416;2024-01-15T14:17:42;94.70;;;90.43;;
11396;SDS011;5754;43.726;7.416;2024-01-15T14:20:16;94.17;;;89.87;;
11396;SDS011;5754;43.726;7.416;2024-01-15T14:22:54;92.33;;;88.07;;
11396;SDS011;5754;43.726;7.416;2024-01-15T14:25:30;90.90;;;86.70;;
11396;SDS011;5754;43.726;7.416;2024-01-15T14:28:04;91.67;;;87.57;;
11396;SDS011;5754;43.726;7.416;2024-01-15T14:30:41;97.00;;;92.63;;
11396;SDS011;5754;43.726;7.416;2024-01-15T14:33:16;90.80;;;86.53;;
11396;SDS011;5754;43.726;7.416;2024-01-15T14:35:51;92.93;;;88.77;;
11396;SDS011;5754;43.726;7.416;2024-01-15T14:38:26;90.70;;;86.50;;
11396;SDS011;5754;43.726;7.416;2024-01-15T14:41:01;90.80;;;86.77;;
11396;SDS011;5754;43.726;7.416;2024-01-15T14:43:36;91.67;;;87.57;;
11396;SDS011;5754;43.726;7.416;2024-01-15T14:46:11;90.27;;;86.07;;
11396;SDS011;5754;43.726;7.416;2024-01-15T14:48:49;89.07;;;84.80;;
11396;SDS011;5754;43.726;7.416;2024-01-15T14:51:24;87.67;;;83.77;;
11396;SDS011;5754;43.726;7.416;2024-01-15T14:53:58;91.70;;;87.50;;
11396;SDS011;5754;43.726;7.416;2024-01-15T14:56:34;88.97;;;84.73;;
11396;SDS011;5754;43.726;7.416;2024-01-15T14:59:09;88.90;;;84.90;;
11396;SDS011;5754;43.726;7.416;2024-01-15T15:01:44;91.53;;;87.23;;
11396;SDS011;5754;43.726;7.416;2024-01-15T15:04:19;87.40;;;83.30;;
11396;SDS011;5754;43.726;7.416;2024-01-15T15:06:53;86.40;;;82.50;;
11396;SDS011;5754;43.726;7.416;2024-01-15T15:09:28;86.40;;;82.27;;
11396;SDS011;5754;43.726;7.416;2024-01-15T15:12:03;87.00;;;82.80;;
11396;SDS011;5754;43.726;7.416;2024-01-15T15:14:40;87.47;;;83.27;;
11396;SDS011;5754;43.726;7.416;2024-01-15T15:17:21;84.53;;;80.57;;
11396;SDS011;5754;43.726;7.416;2024-01-15T15:19:56;87.47;;;83.43;;
11396;SDS011;5754;43.726;7.416;2024-01-15T15:22:30;83.47;;;79.77;;
11396;SDS011;5754;43.726;7.416;2024-01-15T15:25:07;82.50;;;78.60;;